createdAt,value
2022-08-05T00:03:39.330Z,11.27
2022-08-05T00:06:29.183Z,8.82
2022-08-05T00:08:55.946Z,8.30
2022-08-05T00:11:34.653Z,8.27
2022-08-05T00:16:52.870Z,6.68
2022-08-05T00:19:33.551Z,7.97
2022-08-05T00:22:13.873Z,7.18
2022-08-05T00:24:47.217Z,10.38
2022-08-05T00:27:22.747Z,10.50
2022-08-05T00:30:11.328Z,9.50
2022-08-05T00:32:39.251Z,8.98
2022-08-05T00:35:08.806Z,7.63
2022-08-05T00:37:53.046Z,6.80
2022-08-05T00:40:28.352Z,9.48
2022-08-05T00:42:58.879Z,7.43
2022-08-05T00:45:38.886Z,6.95
2022-08-05T00:48:33.645Z,6.20
2022-08-05T00:51:50.485Z,8.07
2022-08-05T00:54:07.032Z,10.98
2022-08-05T00:56:34.989Z,6.55
2022-08-05T00:59:02.553Z,9.52
2022-08-05T01:01:48.335Z,6.28
2022-08-05T01:04:20.258Z,7.78
2022-08-05T01:06:55.134Z,8.55
2022-08-05T01:09:23.363Z,8.68
2022-08-05T01:11:54.555Z,11.05
2022-08-05T01:14:45.523Z,11.45
2022-08-05T01:17:22.314Z,7.60
2022-08-05T01:20:01.182Z,11.57
2022-08-05T01:22:57.510Z,8.68
2022-08-05T01:25:40.356Z,6.78
2022-08-05T01:28:55.116Z,11.43
2022-08-05T01:31:26.676Z,11.10
2022-08-05T01:34:03.647Z,7.28
2022-08-05T01:36:34.890Z,8.05
2022-08-05T01:39:45.801Z,9.77
2022-08-05T01:42:09.880Z,7.60
2022-08-05T01:44:40.315Z,13.25
2022-08-05T01:50:00.183Z,13.10
2022-08-05T01:55:01.858Z,11.00
2022-08-05T01:58:12.359Z,8.90
2022-08-05T02:00:30.278Z,7.13
2022-08-05T02:03:03.839Z,6.20
2022-08-05T02:05:36.698Z,8.57
2022-08-05T02:08:05.138Z,7.97
2022-08-05T02:10:43.600Z,10.02
2022-08-05T02:13:53.370Z,10.00
2022-08-05T02:16:36.184Z,10.15
2022-08-05T02:19:17.968Z,7.80
2022-08-05T02:21:59.161Z,8.23
2022-08-05T02:24:33.403Z,14.60
2022-08-05T02:27:10.135Z,15.52
2022-08-05T02:29:58.592Z,8.68
2022-08-05T02:32:31.578Z,10.18
2022-08-05T02:35:14.043Z,11.57
2022-08-05T02:37:54.013Z,13.63
2022-08-05T02:40:24.474Z,9.82
2022-08-05T02:42:54.581Z,14.73
2022-08-05T02:45:25.297Z,9.60
2022-08-05T02:48:06.748Z,9.75
2022-08-05T02:50:48.479Z,12.63
2022-08-05T02:53:21.619Z,14.70
2022-08-05T02:55:59.696Z,15.45
2022-08-05T02:58:30.269Z,15.50
2022-08-05T03:01:02.042Z,9.63
2022-08-05T03:03:33.690Z,8.95
2022-08-05T03:06:55.155Z,13.63
2022-08-05T03:08:52.692Z,10.15
2022-08-05T03:11:56.678Z,11.85
2022-08-05T03:14:14.426Z,11.32
2022-08-05T03:16:42.926Z,9.32
2022-08-05T03:19:16.837Z,12.15
2022-08-05T03:21:49.645Z,10.82
2022-08-05T03:24:29.831Z,13.43
2022-08-05T03:27:00.300Z,14.50
2022-08-05T03:29:45.313Z,13.73
2022-08-05T03:32:19.712Z,15.50
2022-08-05T03:34:51.272Z,8.38
2022-08-05T03:37:21.313Z,12.95
2022-08-05T03:39:58.948Z,13.63
2022-08-05T03:42:29.031Z,8.98
2022-08-05T03:44:57.188Z,14.02
2022-08-05T03:47:30.571Z,9.68
2022-08-05T03:50:04.164Z,13.90
2022-08-05T03:54:59.221Z,9.05
2022-08-05T03:56:01.516Z,10.30
2022-08-05T03:58:22.364Z,12.32
2022-08-05T04:01:06.569Z,14.95
2022-08-05T04:03:38.980Z,14.25
2022-08-05T04:06:08.724Z,13.90
2022-08-05T04:08:37.667Z,15.73
2022-08-05T04:11:08.633Z,12.95
2022-08-05T04:13:50.137Z,15.70
2022-08-05T04:16:24.332Z,18.08
2022-08-05T04:22:08.093Z,11.63
2022-08-05T04:24:22.489Z,12.15
2022-08-05T04:26:50.818Z,13.40
2022-08-05T04:29:18.701Z,19.48
2022-08-05T04:31:49.720Z,14.25
2022-08-05T04:34:33.363Z,13.23
2022-08-05T04:37:03.434Z,11.40
2022-08-05T04:39:32.204Z,11.10
2022-08-05T04:42:04.552Z,12.45
2022-08-05T04:44:35.298Z,18.45
2022-08-05T04:47:09.146Z,10.60
2022-08-05T04:50:03.051Z,10.35
2022-08-05T04:52:29.481Z,10.75
2022-08-05T04:55:13.922Z,12.32
2022-08-05T04:57:54.120Z,13.68
2022-08-05T05:00:23.678Z,15.20
2022-08-05T05:02:52.091Z,18.77
2022-08-05T05:05:28.445Z,7.15
2022-08-05T05:08:14.098Z,10.02
2022-08-05T05:10:56.519Z,8.18
2022-08-05T05:13:24.422Z,11.32
2022-08-05T05:15:57.341Z,9.70
2022-08-05T05:18:33.698Z,10.98
2022-08-05T05:21:03.552Z,8.45
2022-08-05T05:23:39.000Z,9.98
2022-08-05T05:26:28.824Z,12.68
2022-08-05T05:29:02.540Z,9.63
2022-08-05T05:31:35.829Z,9.93
2022-08-05T05:34:02.086Z,8.75
2022-08-05T05:36:32.195Z,9.63
2022-08-05T05:39:03.704Z,13.68
2022-08-05T05:41:40.722Z,10.90
2022-08-05T05:44:36.022Z,12.60
2022-08-05T05:47:04.311Z,10.18
2022-08-05T05:49:42.082Z,13.00
2022-08-05T05:52:28.276Z,10.27
2022-08-05T05:55:07.425Z,14.45
2022-08-05T05:57:52.225Z,7.97
2022-08-05T06:00:21.864Z,9.15
2022-08-05T06:03:00.948Z,9.20
2022-08-05T06:05:32.591Z,7.57
2022-08-05T06:08:02.138Z,10.35
2022-08-05T06:10:37.490Z,12.80
2022-08-05T06:13:18.539Z,10.60
2022-08-05T06:16:28.742Z,8.77
2022-08-05T06:18:39.442Z,10.40
2022-08-05T06:21:07.991Z,7.45
2022-08-05T06:23:45.707Z,16.50
2022-08-05T06:26:20.957Z,12.13
2022-08-05T06:28:52.040Z,9.35
2022-08-05T06:31:21.957Z,9.25
2022-08-05T06:36:37.478Z,10.30
2022-08-05T06:39:27.890Z,11.07
2022-08-05T06:41:58.900Z,11.25
2022-08-05T06:44:26.813Z,10.55
2022-08-05T06:46:56.364Z,14.82
2022-08-05T06:50:00.310Z,16.70
2022-08-05T06:52:37.733Z,7.53
2022-08-05T06:55:02.445Z,8.68
2022-08-05T06:57:57.360Z,8.75
2022-08-05T07:00:24.920Z,12.95
2022-08-05T07:02:54.319Z,12.40
2022-08-05T07:05:37.245Z,9.48
2022-08-05T07:08:06.143Z,9.80
2022-08-05T07:10:52.856Z,11.43
2022-08-05T07:13:58.014Z,13.75
2022-08-05T07:18:00.693Z,7.72
2022-08-05T07:20:16.865Z,9.73
2022-08-05T07:22:30.172Z,10.73
2022-08-05T07:24:59.567Z,9.82
2022-08-05T07:27:57.087Z,8.32
2022-08-05T07:33:15.693Z,7.95
2022-08-05T07:36:03.256Z,7.40
2022-08-05T07:38:43.315Z,8.70
2022-08-05T07:42:08.969Z,9.20
2022-08-05T07:44:12.114Z,5.93
2022-08-05T07:46:50.324Z,7.53
2022-08-05T07:49:20.873Z,9.10
2022-08-05T07:51:53.596Z,10.95
2022-08-05T07:54:31.148Z,10.32
2022-08-05T07:57:14.603Z,5.57
2022-08-05T07:59:52.086Z,7.30
2022-08-05T08:03:15.420Z,8.17
2022-08-05T08:05:17.920Z,5.40
2022-08-05T08:07:59.489Z,5.03
2022-08-05T08:10:30.235Z,4.80
2022-08-05T08:12:59.362Z,5.30
2022-08-05T08:16:33.505Z,3.17
2022-08-05T08:18:25.945Z,6.95
2022-08-05T08:21:03.379Z,8.88
2022-08-05T08:24:02.489Z,4.93
2022-08-05T08:26:26.910Z,8.32
2022-08-05T08:29:29.319Z,7.63
2022-08-05T08:31:50.749Z,11.45
2022-08-05T08:34:30.429Z,14.18
2022-08-05T08:37:05.202Z,4.63
2022-08-05T08:39:37.135Z,6.68
2022-08-05T08:42:15.210Z,4.30
2022-08-05T08:45:25.130Z,6.40
2022-08-05T08:48:07.459Z,6.38
2022-08-05T08:51:04.146Z,5.00
2022-08-05T08:53:35.833Z,7.30
2022-08-05T08:56:06.510Z,9.30
2022-08-05T08:58:44.509Z,2.85
2022-08-05T09:01:18.321Z,4.65
2022-08-05T09:03:54.230Z,4.93
2022-08-05T09:06:29.156Z,6.15
2022-08-05T09:09:01.565Z,4.72
2022-08-05T09:11:51.249Z,4.57
2022-08-05T09:14:58.376Z,5.28
2022-08-05T09:17:09.718Z,4.30
2022-08-05T09:20:02.759Z,4.07
2022-08-05T09:23:05.529Z,4.63
2022-08-05T09:26:01.629Z,8.88
2022-08-05T09:28:31.532Z,6.05
2022-08-05T09:31:22.707Z,5.97
2022-08-05T09:34:04.122Z,6.68
2022-08-05T09:37:17.397Z,6.15
2022-08-05T09:40:05.866Z,4.60
2022-08-05T09:46:06.791Z,5.82
2022-08-05T09:51:14.971Z,5.87
2022-08-05T09:53:58.948Z,3.13
2022-08-05T09:56:29.286Z,4.63
2022-08-05T09:59:11.278Z,5.40
2022-08-05T10:01:46.806Z,3.05
2022-08-05T10:04:17.500Z,5.88
2022-08-05T10:06:59.475Z,3.05
2022-08-05T10:09:29.860Z,3.47
2022-08-05T10:12:30.642Z,3.88
2022-08-05T10:15:34.473Z,8.85
2022-08-05T10:18:03.725Z,3.13
2022-08-05T10:20:36.368Z,2.38
2022-08-05T10:23:04.818Z,2.67
2022-08-05T10:25:37.023Z,3.53
2022-08-05T10:28:09.528Z,3.05
2022-08-05T10:32:53.604Z,1.95
2022-08-05T10:33:38.093Z,3.78
2022-08-05T10:36:07.698Z,1.58
2022-08-05T10:38:37.514Z,2.90
2022-08-05T10:41:46.580Z,0.98
2022-08-05T10:44:20.144Z,3.75
2022-08-05T10:46:54.632Z,3.47
2022-08-05T10:49:26.554Z,5.75
2022-08-05T10:52:02.389Z,3.70
2022-08-05T10:55:05.375Z,1.13
2022-08-05T10:57:34.949Z,1.80
2022-08-05T11:00:23.303Z,5.00
2022-08-05T11:03:25.859Z,2.00
2022-08-05T11:06:16.115Z,3.05
2022-08-05T11:09:32.336Z,1.95
2022-08-05T11:12:42.475Z,2.60
2022-08-05T11:15:21.947Z,3.97
2022-08-05T11:18:26.184Z,3.25
2022-08-05T11:20:55.368Z,3.00
2022-08-05T11:23:25.972Z,1.27
2022-08-05T11:26:12.557Z,1.40
2022-08-05T11:28:45.242Z,4.28
2022-08-05T11:31:54.484Z,3.97
2022-08-05T11:34:09.242Z,3.15
2022-08-05T11:36:52.938Z,0.73
2022-08-05T11:39:49.900Z,1.90
2022-08-05T11:42:29.910Z,2.28
2022-08-05T11:45:05.382Z,2.47
2022-08-05T11:47:49.460Z,0.65
2022-08-05T11:50:18.722Z,2.20
2022-08-05T11:52:55.721Z,2.75
2022-08-05T11:55:32.054Z,1.43
2022-08-05T11:58:10.254Z,2.77
2022-08-05T12:00:41.503Z,3.28
2022-08-05T12:03:31.447Z,3.72
2022-08-05T12:06:05.763Z,6.55
2022-08-05T12:08:49.836Z,3.10
2022-08-05T12:11:24.499Z,3.05
2022-08-05T12:14:04.391Z,3.10
2022-08-05T12:16:38.745Z,4.40
2022-08-05T12:20:16.964Z,6.68
2022-08-05T12:22:02.645Z,1.83
2022-08-05T12:24:33.289Z,7.10
2022-08-05T12:27:09.675Z,3.05
2022-08-05T12:29:40.694Z,4.28
2022-08-05T12:32:09.658Z,3.53
2022-08-05T12:34:41.204Z,2.38
2022-08-05T12:37:21.822Z,2.17
2022-08-05T12:39:53.836Z,6.85
2022-08-05T12:42:25.396Z,4.88
2022-08-05T12:45:12.460Z,2.00
2022-08-05T12:48:01.454Z,4.35
2022-08-05T12:50:32.182Z,4.20
2022-08-05T12:53:03.820Z,2.08
2022-08-05T12:55:39.942Z,1.52
2022-08-05T12:58:49.788Z,2.87
2022-08-05T13:02:03.965Z,1.50
2022-08-05T13:04:16.640Z,1.70
2022-08-05T13:06:51.750Z,3.53
2022-08-05T13:09:28.073Z,2.30
2022-08-05T13:12:07.838Z,1.88
2022-08-05T13:14:46.883Z,5.57
2022-08-05T13:17:42.248Z,2.95
2022-08-05T13:20:23.441Z,3.83
2022-08-05T13:22:56.741Z,4.82
2022-08-05T13:25:52.649Z,1.83
2022-08-05T13:28:18.650Z,2.30
2022-08-05T13:30:51.166Z,1.67
2022-08-05T13:34:21.912Z,1.85
2022-08-05T13:36:15.445Z,3.65
2022-08-05T13:38:45.698Z,3.90
2022-08-05T13:41:19.679Z,2.00
2022-08-05T13:43:54.844Z,1.90
2022-08-05T13:46:50.985Z,7.00
2022-08-05T13:49:13.282Z,4.13
2022-08-05T13:51:46.558Z,3.70
2022-08-05T13:54:20.995Z,12.82
2022-08-05T13:56:53.681Z,2.33
2022-08-05T13:59:27.288Z,1.45
2022-08-05T14:01:59.848Z,1.27
2022-08-05T14:04:49.980Z,3.55
2022-08-05T14:08:00.457Z,4.15
2022-08-05T14:10:28.105Z,2.97
2022-08-05T14:12:59.953Z,1.13
2022-08-05T14:16:07.367Z,3.42
2022-08-05T14:18:23.202Z,3.92
2022-08-05T14:20:54.976Z,2.85
2022-08-05T14:23:25.731Z,1.08
2022-08-05T14:25:58.979Z,1.55
2022-08-05T14:28:31.146Z,1.42
2022-08-05T14:31:00.623Z,4.20
2022-08-05T14:33:32.575Z,3.38
2022-08-05T14:36:21.227Z,3.55
2022-08-05T14:38:51.176Z,1.95
2022-08-05T14:41:20.419Z,4.47
2022-08-05T14:43:58.833Z,1.85
2022-08-05T14:46:30.639Z,2.83
2022-08-05T14:49:06.656Z,0.95
2022-08-05T14:51:43.938Z,6.07
2022-08-05T14:54:30.031Z,5.03
2022-08-05T14:59:37.332Z,8.82
2022-08-05T15:02:16.159Z,5.47
2022-08-05T15:04:49.975Z,2.97
2022-08-05T15:08:08.804Z,2.17
2022-08-05T15:10:09.878Z,3.78
2022-08-05T15:12:59.817Z,1.98
2022-08-05T15:15:55.984Z,5.50
2022-08-05T15:18:17.239Z,4.43
2022-08-05T15:20:48.725Z,0.70
2022-08-05T15:23:17.643Z,2.00
2022-08-05T15:25:55.920Z,5.68
2022-08-05T15:28:27.781Z,1.52
2022-08-05T15:30:55.771Z,2.22
2022-08-05T15:34:04.760Z,0.95
2022-08-05T15:36:17.224Z,2.78
2022-08-05T15:40:58.831Z,3.97
2022-08-05T15:41:58.121Z,5.00
2022-08-05T15:44:30.854Z,2.05
2022-08-05T15:47:02.415Z,2.42
2022-08-05T15:49:55.635Z,2.83
2022-08-05T15:52:52.231Z,4.13
2022-08-05T15:55:16.172Z,2.08
2022-08-05T15:57:48.811Z,2.92
2022-08-05T16:00:25.953Z,1.65
2022-08-05T16:03:01.006Z,3.10
2022-08-05T16:05:30.259Z,1.00
2022-08-05T16:07:58.414Z,2.03
2022-08-05T16:10:27.903Z,2.33
2022-08-05T16:12:57.014Z,1.10
2022-08-05T16:15:25.187Z,1.95
2022-08-05T16:18:00.777Z,1.08
2022-08-05T16:20:33.100Z,2.53
2022-08-05T16:23:01.605Z,9.20
2022-08-05T16:25:33.915Z,3.08
2022-08-05T16:28:09.488Z,0.93
2022-08-05T16:30:38.367Z,2.45
2022-08-05T16:33:06.373Z,2.78
2022-08-05T16:35:42.006Z,1.15
2022-08-05T16:38:24.728Z,2.28
2022-08-05T16:41:01.585Z,2.60
2022-08-05T16:43:31.904Z,4.75
2022-08-05T16:48:39.030Z,5.53
2022-08-05T16:51:09.015Z,2.33
2022-08-05T16:54:05.766Z,3.38
2022-08-05T16:56:29.676Z,4.05
2022-08-05T16:59:01.001Z,4.28
2022-08-05T17:01:53.270Z,3.92
2022-08-05T17:04:28.500Z,2.45
2022-08-05T17:07:01.409Z,3.45
2022-08-05T17:09:57.875Z,3.20
2022-08-05T17:12:22.559Z,4.00
2022-08-05T17:15:09.902Z,6.90
2022-08-05T17:17:48.820Z,7.90
2022-08-05T17:20:22.732Z,6.57
2022-08-05T17:22:55.667Z,6.57
2022-08-05T17:25:39.556Z,2.78
2022-08-05T17:28:15.524Z,6.43
2022-08-05T17:30:52.042Z,4.03
2022-08-05T17:33:20.945Z,5.03
2022-08-05T17:36:07.276Z,2.92
2022-08-05T17:38:37.066Z,1.48
2022-08-05T17:41:11.717Z,6.72
2022-08-05T17:43:56.483Z,1.63
2022-08-05T17:46:28.680Z,3.60
2022-08-05T17:51:26.363Z,4.53
2022-08-05T17:53:54.920Z,2.22
2022-08-05T17:56:23.421Z,2.92
2022-08-05T17:58:56.560Z,3.25
2022-08-05T18:01:24.893Z,4.72
2022-08-05T18:04:03.857Z,2.55
2022-08-05T18:06:33.555Z,3.72
2022-08-05T18:09:04.579Z,2.38
2022-08-05T18:11:38.168Z,3.95
2022-08-05T18:14:13.597Z,6.82
2022-08-05T18:16:59.162Z,5.88
2022-08-05T18:19:28.524Z,3.28
2022-08-05T18:22:09.438Z,2.28
2022-08-05T18:24:41.680Z,5.90
2022-08-05T18:27:12.880Z,4.28
2022-08-05T18:29:54.329Z,3.53
2022-08-05T18:32:28.249Z,8.93
2022-08-05T18:34:58.228Z,3.53
2022-08-05T18:37:33.402Z,4.77
2022-08-05T18:41:50.656Z,5.28
2022-08-05T18:42:52.025Z,5.95
2022-08-05T18:45:20.589Z,5.53
2022-08-05T18:47:56.269Z,3.33
2022-08-05T18:50:46.187Z,6.65
2022-08-05T18:53:45.657Z,6.82
2022-08-05T18:56:15.480Z,4.18
2022-08-05T18:58:43.385Z,4.47
2022-08-05T19:01:18.002Z,6.90
2022-08-05T19:03:55.091Z,3.15
2022-08-05T19:06:37.066Z,4.40
2022-08-05T19:09:16.927Z,2.67
2022-08-05T19:12:01.062Z,3.60
2022-08-05T19:14:44.488Z,2.13
2022-08-05T19:17:20.961Z,3.42
2022-08-05T19:19:54.323Z,5.50
2022-08-05T19:22:27.803Z,8.80
2022-08-05T19:25:02.624Z,5.68
2022-08-05T19:27:30.811Z,7.50
2022-08-05T19:29:59.073Z,5.50
2022-08-05T19:32:31.135Z,4.93
2022-08-05T19:34:59.826Z,5.40
2022-08-05T19:38:04.712Z,3.97
2022-08-05T19:40:25.615Z,9.02
2022-08-05T19:43:04.597Z,6.32
2022-08-05T19:45:33.325Z,5.18
2022-08-05T19:48:06.447Z,9.10
2022-08-05T19:50:35.310Z,10.15
2022-08-05T19:53:10.437Z,4.80
2022-08-05T19:56:13.767Z,6.95
2022-08-05T19:58:29.103Z,4.07
2022-08-05T20:01:09.050Z,4.75
2022-08-05T20:03:40.771Z,5.68
2022-08-05T20:06:15.228Z,7.07
2022-08-05T20:08:47.395Z,9.25
2022-08-05T20:11:19.525Z,7.05
2022-08-05T20:13:58.981Z,5.18
2022-08-05T20:16:35.505Z,4.22
2022-08-05T20:19:05.034Z,3.80
2022-08-05T20:21:33.125Z,4.90
2022-08-05T20:24:01.098Z,4.85
2022-08-05T20:26:29.517Z,8.48
2022-08-05T20:29:00.495Z,4.47
2022-08-05T20:31:43.132Z,4.45
2022-08-05T20:34:20.053Z,4.47
2022-08-05T20:39:24.286Z,7.32
2022-08-05T20:42:05.970Z,3.72
2022-08-05T20:44:37.735Z,4.53
2022-08-05T20:47:08.650Z,7.57
2022-08-05T20:49:51.338Z,10.98
2022-08-05T20:52:20.984Z,13.07
2022-08-05T20:55:55.595Z,7.30
2022-08-05T20:57:49.257Z,9.20
2022-08-05T21:00:51.907Z,9.65
2022-08-05T21:05:53.873Z,8.63
2022-08-05T21:08:26.763Z,6.47
2022-08-05T21:13:55.770Z,9.48
2022-08-05T21:16:30.904Z,12.38
2022-08-05T21:19:01.121Z,5.03
2022-08-05T21:21:44.122Z,8.45
2022-08-05T21:24:20.104Z,8.07
2022-08-05T21:26:57.882Z,7.20
2022-08-05T21:32:03.564Z,10.43
2022-08-05T21:34:31.645Z,7.15
2022-08-05T21:37:00.806Z,5.15
2022-08-05T21:39:29.539Z,5.50
2022-08-05T21:42:02.180Z,6.90
2022-08-05T21:44:31.814Z,7.57
2022-08-05T21:47:00.301Z,17.75
2022-08-05T21:50:00.007Z,15.85
2022-08-05T21:52:27.776Z,7.20
2022-08-05T21:55:06.450Z,7.78
2022-08-05T21:57:42.727Z,8.20
2022-08-05T22:00:13.096Z,8.70
2022-08-05T22:02:45.864Z,11.70
2022-08-05T22:05:13.566Z,12.90
2022-08-05T22:07:59.002Z,6.68
2022-08-05T22:10:29.400Z,7.50
2022-08-05T22:13:09.355Z,6.07
2022-08-05T22:16:02.754Z,9.50
2022-08-05T22:18:40.956Z,5.70
2022-08-05T22:21:18.743Z,6.38
2022-08-05T22:24:13.056Z,3.70
2022-08-05T22:27:16.480Z,7.50
2022-08-05T22:29:47.002Z,9.52
2022-08-05T22:32:18.401Z,9.10
2022-08-05T22:34:47.247Z,11.27
2022-08-05T22:37:18.995Z,10.80
2022-08-05T22:39:50.497Z,7.88
2022-08-05T22:42:25.484Z,7.65
2022-08-05T22:44:56.747Z,13.88
2022-08-05T22:47:29.256Z,6.33
2022-08-05T22:50:21.600Z,5.28
2022-08-05T22:52:52.384Z,8.88
2022-08-05T22:55:22.297Z,8.98
2022-08-05T22:57:56.810Z,5.65
2022-08-05T23:00:29.048Z,5.63
2022-08-05T23:02:59.739Z,9.18
2022-08-05T23:05:36.079Z,5.40
2022-08-05T23:08:05.360Z,5.32
2022-08-05T23:10:32.948Z,5.80
2022-08-05T23:13:01.504Z,5.57
2022-08-05T23:15:34.934Z,4.78
2022-08-05T23:18:06.156Z,3.45
2022-08-05T23:20:39.866Z,6.07
2022-08-05T23:23:11.280Z,10.35
2022-08-05T23:25:51.002Z,10.10
2022-08-05T23:28:28.833Z,7.38
2022-08-05T23:31:07.117Z,5.82
2022-08-05T23:34:03.995Z,8.73
2022-08-05T23:36:38.671Z,8.07
2022-08-05T23:39:09.412Z,8.65
2022-08-05T23:41:48.342Z,6.25
2022-08-05T23:44:17.450Z,11.82
2022-08-05T23:46:51.968Z,8.38
2022-08-05T23:49:23.907Z,7.30
2022-08-05T23:52:20.356Z,5.15
2022-08-05T23:54:49.653Z,10.18
2022-08-05T23:57:21.636Z,8.13
